Time;durP1;ratioP1;P1;durP2;ratioP2;P2;SDS_P1;SDS_P2;PMS_P1;PMS_P2;Temp;Humidity;BMP_temperature;BMP_pressure;BME280_temperature;BME280_humidity;BME280_pressure;Samples;Min_cycle;Max_cycle;Signal;HPM_P1;HPM_P2
2022/06/06 00:01:18;;;;;;;58.78;36.30;;;16.20;99.90;;;;;;4977199;28;20027;-59
2022/06/06 00:03:44;;;;;;;64.50;36.70;;;16.20;99.90;;;;;;4983526;28;20039;-61
2022/06/06 00:06:13;;;;;;;56.42;31.80;;;16.20;99.90;;;;;;4981998;28;20033;-56
2022/06/06 00:08:40;;;;;;;56.75;32.22;;;16.20;99.90;;;;;;4981340;28;20113;-57
2022/06/06 00:11:09;;;;;;;59.08;33.35;;;16.20;99.90;;;;;;4961053;28;20418;-59
2022/06/06 00:13:36;;;;;;;64.50;32.53;;;16.20;99.90;;;;;;4980196;28;20026;-58
2022/06/06 00:16:01;;;;;;;62.33;36.53;;;16.20;99.90;;;;;;4978105;28;20101;-54
2022/06/06 00:18:27;;;;;;;55.72;31.30;;;16.10;99.90;;;;;;4976850;28;20168;-58
2022/06/06 00:20:53;;;;;;;52.38;30.98;;;16.10;99.90;;;;;;4978705;28;20030;-56
2022/06/06 00:23:19;;;;;;;53.30;30.00;;;16.10;99.90;;;;;;4977983;28;20031;-57
2022/06/06 00:25:44;;;;;;;55.75;30.58;;;16.10;99.90;;;;;;4978271;28;20066;-59
2022/06/06 00:28:10;;;;;;;60.65;30.83;;;16.10;99.90;;;;;;4973976;28;20073;-52
2022/06/06 00:30:36;;;;;;;52.80;28.13;;;16.00;99.90;;;;;;4977733;28;20194;-56
2022/06/06 00:35:45;;;;;;;;;;;16.00;99.90;;;;;;4975563;28;20042;-60
2022/06/06 00:38:11;;;;;;;47.55;27.17;;;16.00;99.90;;;;;;4988987;28;19913;-54
2022/06/06 00:40:36;;;;;;;55.90;28.77;;;16.00;99.90;;;;;;4984058;28;20087;-56
2022/06/06 00:43:03;;;;;;;50.53;28.98;;;16.00;99.90;;;;;;4979907;28;20030;-57
2022/06/06 00:45:39;;;;;;;51.50;29.52;;;15.90;99.90;;;;;;4983474;28;20026;-57
2022/06/06 00:48:39;;;;;;;55.42;28.27;;;16.00;99.90;;;;;;4978269;28;20022;-57
2022/06/06 00:51:14;;;;;;;61.28;31.65;;;16.00;99.90;;;;;;4976622;28;20145;-57
2022/06/06 00:53:51;;;;;;;56.75;30.60;;;16.00;99.90;;;;;;4987307;28;20554;-57
2022/06/06 00:56:27;;;;;;;56.92;31.58;;;16.00;99.90;;;;;;4987313;28;20026;-52
2022/06/06 00:58:57;;;;;;;56.13;30.73;;;16.00;99.90;;;;;;4982406;28;20065;-56
2022/06/06 01:01:24;;;;;;;61.05;31.88;;;16.00;99.90;;;;;;4977102;28;20026;-57
2022/06/06 01:03:50;;;;;;;63.58;34.00;;;16.00;99.90;;;;;;4979492;28;20027;-58
2022/06/06 01:06:18;;;;;;;67.35;33.88;;;16.00;99.90;;;;;;4978790;28;20089;-56
2022/06/06 01:08:47;;;;;;;62.13;31.83;;;16.00;99.90;;;;;;4993053;28;20028;-57
2022/06/06 01:11:13;;;;;;;64.30;35.38;;;16.00;99.90;;;;;;4994103;28;20046;-56
2022/06/06 01:13:41;;;;;;;64.80;34.55;;;16.00;99.90;;;;;;5014586;28;20044;-56
2022/06/06 01:16:27;;;;;;;64.72;35.15;;;16.00;99.90;;;;;;5013374;28;20104;-57
2022/06/06 01:19:19;;;;;;;60.92;34.00;;;16.00;99.90;;;;;;5011566;28;20029;-56
2022/06/06 01:22:18;;;;;;;67.55;35.45;;;15.90;99.90;;;;;;5012836;28;20100;-56
2022/06/06 01:24:50;;;;;;;70.93;36.05;;;15.90;99.90;;;;;;5011182;28;20041;-58
2022/06/06 01:27:50;;;;;;;63.83;34.22;;;15.90;99.90;;;;;;5010263;28;20073;-57
2022/06/06 01:30:23;;;;;;;76.22;35.05;;;15.90;99.90;;;;;;5010154;28;20080;-56
2022/06/06 01:32:56;;;;;;;66.28;36.75;;;15.90;99.90;;;;;;5010929;28;20479;-57
2022/06/06 01:35:31;;;;;;;68.85;37.63;;;15.90;99.90;;;;;;5013683;28;20240;-56
2022/06/06 01:37:57;;;;;;;60.92;32.58;;;15.90;99.90;;;;;;5003718;28;20026;-57
2022/06/06 01:40:24;;;;;;;50.97;28.15;;;15.90;99.90;;;;;;5009631;28;20045;-57
2022/06/06 01:42:58;;;;;;;43.17;26.75;;;15.80;99.90;;;;;;5008947;28;20037;-55
2022/06/06 01:45:27;;;;;;;49.88;25.42;;;15.80;99.90;;;;;;5011952;28;20026;-54
2022/06/06 01:48:02;;;;;;;39.53;23.25;;;15.80;99.90;;;;;;5016890;28;20025;-57
2022/06/06 01:50:30;;;;;;;30.00;19.25;;;15.80;99.90;;;;;;5017588;28;20128;-58
2022/06/06 01:53:01;;;;;;;28.88;18.80;;;15.80;99.90;;;;;;4993586;28;20033;-57
2022/06/06 01:55:30;;;;;;;27.75;18.10;;;15.80;99.90;;;;;;5001678;28;20025;-56
2022/06/06 01:58:01;;;;;;;27.88;17.45;;;15.80;99.90;;;;;;5004897;28;20022;-58
2022/06/06 02:00:28;;;;;;;26.67;17.30;;;15.70;99.90;;;;;;5009961;28;20030;-57
2022/06/06 02:02:54;;;;;;;27.67;17.05;;;15.70;99.90;;;;;;5001193;28;20089;-56
2022/06/06 02:05:20;;;;;;;27.30;16.17;;;15.70;99.90;;;;;;5022468;28;20473;-59
2022/06/06 02:07:46;;;;;;;25.88;16.88;;;15.60;99.90;;;;;;5003137;28;20034;-56
2022/06/06 02:10:13;;;;;;;26.15;16.00;;;15.60;99.90;;;;;;4980177;28;20555;-59
2022/06/06 02:12:40;;;;;;;25.55;15.68;;;15.60;99.90;;;;;;4985498;28;20026;-56
2022/06/06 02:15:08;;;;;;;23.25;14.82;;;15.60;99.90;;;;;;4983805;28;20040;-57
2022/06/06 02:17:34;;;;;;;24.67;15.23;;;15.50;99.90;;;;;;4990501;28;20077;-57
2022/06/06 02:20:04;;;;;;;27.15;15.35;;;15.50;99.90;;;;;;4989525;28;20027;-56
2022/06/06 02:22:30;;;;;;;26.33;15.88;;;15.50;99.90;;;;;;4989615;28;20026;-57
2022/06/06 02:24:56;;;;;;;24.20;14.38;;;15.50;99.90;;;;;;4986168;28;20033;-58
2022/06/06 02:27:21;;;;;;;26.35;15.63;;;15.50;99.90;;;;;;4988737;28;20030;-59
2022/06/06 02:29:47;;;;;;;27.10;15.35;;;15.50;99.90;;;;;;4989741;28;20033;-57
2022/06/06 02:32:13;;;;;;;20.45;13.15;;;15.50;99.90;;;;;;4990410;28;20081;-48
2022/06/06 02:34:39;;;;;;;23.25;14.93;;;15.50;99.90;;;;;;4988183;28;20030;-58
2022/06/06 02:37:05;;;;;;;27.73;13.80;;;15.50;99.90;;;;;;4989950;28;20038;-57
2022/06/06 02:39:31;;;;;;;23.35;13.15;;;15.40;99.90;;;;;;4990720;28;20037;-53
2022/06/06 02:41:56;;;;;;;21.98;13.82;;;15.50;99.90;;;;;;4993289;28;20102;-57
2022/06/06 02:44:23;;;;;;;18.17;11.88;;;15.40;99.90;;;;;;4991415;28;20492;-57
2022/06/06 02:46:50;;;;;;;21.55;12.90;;;15.40;99.90;;;;;;4991065;28;20373;-57
2022/06/06 02:49:15;;;;;;;20.15;12.07;;;15.40;99.90;;;;;;4993738;28;20031;-59
2022/06/06 02:51:41;;;;;;;25.20;13.15;;;15.40;99.90;;;;;;4992966;28;20037;-57
2022/06/06 02:54:07;;;;;;;21.58;12.55;;;15.40;99.90;;;;;;4993521;28;20113;-57
2022/06/06 02:56:32;;;;;;;25.73;13.35;;;15.40;99.90;;;;;;4991860;28;20018;-59
2022/06/06 02:59:03;;;;;;;20.75;14.23;;;15.40;99.90;;;;;;4989650;28;20030;-58
2022/06/06 03:01:29;;;;;;;22.23;13.95;;;15.40;99.90;;;;;;4992262;28;20397;-58
2022/06/06 03:03:55;;;;;;;24.17;15.02;;;15.40;99.90;;;;;;4993167;28;20077;-56
2022/06/06 03:06:29;;;;;;;33.53;16.67;;;15.40;99.90;;;;;;4991845;28;20034;-58
2022/06/06 03:09:02;;;;;;;27.25;15.82;;;15.40;99.90;;;;;;4991793;28;20088;-56
2022/06/06 03:11:50;;;;;;;25.70;15.73;;;15.30;99.90;;;;;;4973806;28;20521;-57
2022/06/06 03:14:52;;;;;;;23.70;15.20;;;15.30;99.90;;;;;;4991941;28;20037;-54
2022/06/06 03:20:54;;;;;;;26.00;15.15;;;15.20;99.90;;;;;;4988958;28;20041;-56
2022/06/06 03:23:44;;;;;;;20.75;13.13;;;15.20;99.90;;;;;;4991547;28;20026;-59
2022/06/06 03:26:40;;;;;;;22.13;14.20;;;15.30;99.90;;;;;;4989128;28;20034;-59
2022/06/06 03:29:14;;;;;;;24.85;14.50;;;15.30;99.90;;;;;;4976166;28;20034;-57
2022/06/06 03:32:03;;;;;;;23.58;13.73;;;15.30;99.90;;;;;;4991294;28;20022;-56
2022/06/06 03:35:01;;;;;;;22.83;13.98;;;15.30;99.90;;;;;;4992257;28;20027;-56
2022/06/06 03:37:47;;;;;;;21.52;12.25;;;15.30;99.90;;;;;;4958118;28;20034;-57
2022/06/06 03:40:19;;;;;;;20.23;12.40;;;15.30;99.90;;;;;;4991179;28;20055;-52
2022/06/06 03:42:54;;;;;;;21.35;12.00;;;15.30;99.90;;;;;;4991844;28;20113;-56
2022/06/06 03:45:53;;;;;;;17.30;11.63;;;15.30;99.90;;;;;;4991106;28;20057;-58
2022/06/06 03:48:22;;;;;;;19.65;11.40;;;15.40;99.90;;;;;;4990104;28;20034;-59
2022/06/06 03:51:10;;;;;;;24.30;11.52;;;15.40;99.90;;;;;;4990985;28;20030;-59
2022/06/06 03:53:52;;;;;;;23.08;11.68;;;15.40;99.90;;;;;;4985030;28;20030;-57
2022/06/06 03:56:52;;;;;;;17.83;10.38;;;15.40;99.90;;;;;;4990816;28;20430;-57
2022/06/06 03:59:19;;;;;;;20.48;11.90;;;15.40;99.90;;;;;;4992623;28;20038;-57
2022/06/06 04:01:47;;;;;;;15.15;10.70;;;15.40;99.90;;;;;;4990787;28;20033;-57
2022/06/06 04:04:15;;;;;;;24.50;12.05;;;15.40;99.90;;;;;;4992641;28;20033;-56
2022/06/06 04:06:40;;;;;;;31.30;12.00;;;15.40;99.90;;;;;;4990704;28;20026;-59
2022/06/06 04:09:06;;;;;;;23.48;11.25;;;15.40;99.90;;;;;;4991225;28;20558;-59
2022/06/06 04:11:48;;;;;;;15.18;9.98;;;15.30;99.90;;;;;;4983095;28;20058;-58
2022/06/06 04:14:49;;;;;;;14.40;9.13;;;15.30;99.90;;;;;;4991188;28;20230;-56
2022/06/06 04:17:20;;;;;;;11.30;8.23;;;15.30;99.90;;;;;;4990960;28;20084;-58
2022/06/06 04:20:13;;;;;;;14.98;8.48;;;15.30;99.90;;;;;;4999619;28;20053;-57
2022/06/06 04:22:46;;;;;;;15.20;9.13;;;15.30;99.90;;;;;;4989281;28;20400;-58
2022/06/06 04:25:20;;;;;;;19.33;9.32;;;15.30;99.90;;;;;;4997747;28;20697;-56
2022/06/06 04:27:55;;;;;;;14.75;7.85;;;15.30;99.90;;;;;;5009203;28;20018;-58
2022/06/06 04:30:57;;;;;;;12.00;7.72;;;15.30;99.90;;;;;;4998399;28;20476;-58
2022/06/06 04:33:42;;;;;;;10.88;7.38;;;15.40;99.90;;;;;;5001218;28;20034;-58
2022/06/06 04:36:28;;;;;;;11.73;7.35;;;15.40;99.90;;;;;;4985726;28;20862;-57
2022/06/06 04:39:38;;;;;;;12.88;6.85;;;15.40;99.90;;;;;;5001523;28;20109;-60
2022/06/06 04:42:13;;;;;;;9.07;6.90;;;15.60;99.90;;;;;;4993484;28;20034;-58
2022/06/06 04:44:43;;;;;;;8.40;6.45;;;15.60;99.90;;;;;;4998194;28;20437;-58
2022/06/06 04:47:26;;;;;;;11.85;6.80;;;15.80;99.90;;;;;;4998517;28;20117;-57
2022/06/06 04:49:54;;;;;;;12.60;6.32;;;16.10;99.90;;;;;;4987488;28;20096;-54
2022/06/06 04:52:21;;;;;;;9.73;6.22;;;16.30;99.90;;;;;;4992052;28;20499;-60
2022/06/06 04:54:48;;;;;;;11.10;6.45;;;16.40;99.90;;;;;;4993528;28;20030;-59
2022/06/06 04:57:17;;;;;;;7.45;5.47;;;16.40;99.90;;;;;;4991147;28;20104;-54
2022/06/06 04:59:44;;;;;;;8.70;5.75;;;16.30;99.90;;;;;;4998490;28;20493;-59
2022/06/06 05:02:09;;;;;;;9.32;6.28;;;16.20;99.90;;;;;;4996541;28;20491;-58
2022/06/06 05:04:35;;;;;;;7.65;5.50;;;16.10;99.90;;;;;;4992826;28;20033;-59
2022/06/06 05:07:11;;;;;;;11.63;6.93;;;16.20;99.90;;;;;;4997766;28;20062;-59
2022/06/06 05:09:49;;;;;;;8.93;6.20;;;16.10;99.90;;;;;;4995511;28;20030;-57
2022/06/06 05:12:33;;;;;;;11.70;6.85;;;16.10;99.90;;;;;;4977692;28;20046;-50
2022/06/06 05:15:27;;;;;;;9.10;6.57;;;16.00;99.90;;;;;;4990070;28;20030;-57
2022/06/06 05:17:59;;;;;;;11.43;6.75;;;16.00;99.90;;;;;;4984827;28;20076;-59
2022/06/06 05:21:04;;;;;;;11.18;6.63;;;16.00;99.90;;;;;;5001069;28;20109;-59
2022/06/06 05:23:49;;;;;;;9.82;6.35;;;16.10;99.90;;;;;;4992211;28;20045;-59
2022/06/06 05:26:17;;;;;;;7.82;5.85;;;16.20;99.90;;;;;;5000576;28;20049;-54
2022/06/06 05:28:55;;;;;;;9.25;6.50;;;16.30;99.90;;;;;;5003491;28;20029;-58
2022/06/06 05:32:20;;;;;;;10.30;5.88;;;16.50;99.90;;;;;;4992693;28;20042;-58
2022/06/06 05:35:00;;;;;;;8.32;5.13;;;16.90;99.90;;;;;;4941652;28;20031;-58
2022/06/06 05:37:40;;;;;;;7.88;5.15;;;17.30;99.90;;;;;;4942950;28;20034;-58
2022/06/06 05:40:25;;;;;;;10.93;4.97;;;17.90;99.90;;;;;;4983757;28;20039;-59
2022/06/06 05:43:20;;;;;;;8.82;4.50;;;18.60;99.90;;;;;;4992174;28;20034;-57
2022/06/06 05:45:48;;;;;;;6.30;4.45;;;18.60;99.90;;;;;;5000833;28;20026;-58
2022/06/06 05:48:39;;;;;;;5.25;3.75;;;18.60;99.90;;;;;;4990081;28;20056;-51
2022/06/06 05:51:22;;;;;;;6.38;4.07;;;18.60;99.90;;;;;;4988964;28;20487;-58
2022/06/06 05:54:13;;;;;;;6.63;3.95;;;18.30;99.90;;;;;;4992594;28;20038;-59
2022/06/06 05:56:53;;;;;;;5.82;3.80;;;18.20;99.90;;;;;;5002521;28;20029;-57
2022/06/06 05:59:42;;;;;;;7.30;4.10;;;18.20;99.90;;;;;;4992974;28;20031;-59
2022/06/06 06:02:22;;;;;;;9.32;4.20;;;18.20;99.90;;;;;;4990988;28;20034;-58
2022/06/06 06:04:59;;;;;;;4.80;3.60;;;18.90;99.90;;;;;;4997188;28;20132;-58
2022/06/06 06:07:53;;;;;;;4.40;2.80;;;19.40;99.90;;;;;;4990187;28;20104;-58
2022/06/06 06:10:47;;;;;;;4.95;3.15;;;20.00;99.90;;;;;;4974819;28;20033;-59
2022/06/06 06:13:31;;;;;;;7.30;3.25;;;21.10;99.90;;;;;;5006266;28;20514;-60
2022/06/06 06:16:00;;;;;;;4.35;2.65;;;22.90;99.30;;;;;;5010138;28;20033;-58
2022/06/06 06:18:40;;;;;;;4.80;2.67;;;24.20;95.10;;;;;;5015680;28;20033;-59
2022/06/06 06:21:14;;;;;;;4.35;2.70;;;24.80;92.00;;;;;;5020032;28;20167;-60
2022/06/06 06:23:46;;;;;;;4.57;2.88;;;25.50;92.00;;;;;;5015683;28;20395;-61
2022/06/06 06:26:13;;;;;;;3.97;2.63;;;25.80;86.50;;;;;;5014858;28;20634;-61
2022/06/06 06:28:43;;;;;;;3.17;2.83;;;25.90;85.50;;;;;;5016057;28;20042;-60
2022/06/06 06:31:31;;;;;;;3.78;3.13;;;27.20;84.90;;;;;;5018213;28;20038;-57
2022/06/06 06:34:03;;;;;;;5.07;2.65;;;26.70;85.60;;;;;;5015922;28;20442;-58
2022/06/06 06:36:41;;;;;;;3.80;2.72;;;25.70;84.40;;;;;;5015237;28;20022;-59
2022/06/06 06:39:54;;;;;;;4.70;3.30;;;24.50;88.70;;;;;;5016725;28;20092;-58
2022/06/06 06:42:41;;;;;;;4.43;3.53;;;25.40;87.60;;;;;;5004501;28;20140;-60
2022/06/06 06:45:08;;;;;;;4.57;3.13;;;25.10;88.10;;;;;;5018288;28;20504;-61
2022/06/06 06:47:35;;;;;;;6.95;3.03;;;25.50;90.70;;;;;;5014759;28;20438;-59
2022/06/06 06:50:10;;;;;;;5.38;2.47;;;25.30;87.20;;;;;;5015220;28;20475;-61
2022/06/06 06:52:47;;;;;;;4.00;2.65;;;24.40;90.40;;;;;;5014639;28;20026;-59
2022/06/06 06:55:30;;;;;;;4.43;1.92;;;23.20;90.00;;;;;;5012337;28;20033;-60
2022/06/06 06:58:08;;;;;;;2.67;1.90;;;23.20;92.80;;;;;;5018365;28;20075;-58
2022/06/06 07:00:56;;;;;;;4.53;1.90;;;23.90;90.90;;;;;;5014074;28;20375;-60
2022/06/06 07:10:06;;;;;;;2.08;1.33;;;27.40;76.50;;;;;;5014669;28;20037;-59
2022/06/06 07:13:06;;;;;;;4.13;1.60;;;26.90;73.50;;;;;;4997423;28;20522;-60
2022/06/06 07:15:43;;;;;;;3.65;1.60;;;27.50;73.50;;;;;;5011799;28;20018;-57
2022/06/06 07:18:13;;;;;;;7.65;1.33;;;28.20;71.30;;;;;;5011740;28;20057;-58
2022/06/06 07:20:41;;;;;;;3.35;1.40;;;28.50;68.60;;;;;;5015151;28;20018;-61
2022/06/06 07:23:11;;;;;;;2.13;1.40;;;29.40;67.90;;;;;;5014967;28;20411;-61
2022/06/06 07:25:38;;;;;;;2.58;1.30;;;28.20;65.10;;;;;;5010060;28;20033;-60
2022/06/06 07:28:11;;;;;;;6.68;1.15;;;27.60;66.60;;;;;;5012397;28;20083;-58
2022/06/06 07:31:11;;;;;;;2.05;1.10;;;28.20;66.60;;;;;;5010745;28;20038;-60
2022/06/06 07:33:51;;;;;;;1.48;1.00;;;28.50;65.40;;;;;;5003911;28;20527;-60
2022/06/06 07:36:37;;;;;;;5.28;1.08;;;28.20;63.70;;;;;;5009128;28;20108;-58
2022/06/06 07:39:29;;;;;;;2.42;0.80;;;27.80;63.20;;;;;;5008118;28;20025;-60
2022/06/06 07:42:10;;;;;;;4.28;0.77;;;28.50;62.40;;;;;;5010916;28;20036;-60
2022/06/06 07:44:54;;;;;;;2.33;0.73;;;28.50;61.60;;;;;;5009835;28;20124;-60
2022/06/06 07:47:23;;;;;;;3.83;0.80;;;29.40;60.60;;;;;;5010322;28;20026;-60
2022/06/06 07:50:10;;;;;;;1.50;0.98;;;29.30;58.80;;;;;;5012002;28;20044;-61
2022/06/06 07:53:03;;;;;;;1.67;0.85;;;29.00;61.10;;;;;;5010480;28;20040;-60
2022/06/06 07:55:55;;;;;;;2.22;0.82;;;29.60;60.40;;;;;;5010991;28;20068;-60
2022/06/06 07:58:31;;;;;;;1.20;0.82;;;29.20;57.90;;;;;;5009653;28;20037;-62
2022/06/06 08:01:29;;;;;;;1.30;0.90;;;28.20;59.70;;;;;;5016646;28;20037;-59
2022/06/06 08:04:27;;;;;;;0.88;0.80;;;28.00;61.40;;;;;;5009150;28;20034;-60
2022/06/06 08:07:00;;;;;;;4.05;0.77;;;27.40;62.10;;;;;;5009993;28;20141;-61
2022/06/06 08:09:42;;;;;;;1.38;0.80;;;26.90;60.90;;;;;;5012248;28;20064;-59
2022/06/06 08:12:23;;;;;;;1.23;0.93;;;27.50;61.10;;;;;;4993971;28;20042;-60
2022/06/06 08:14:53;;;;;;;4.28;1.15;;;28.90;60.40;;;;;;5006981;28;20069;-58
2022/06/06 08:17:41;;;;;;;2.05;0.73;;;29.70;58.80;;;;;;5011067;28;20083;-60
2022/06/06 08:20:27;;;;;;;2.55;1.13;;;30.20;56.20;;;;;;5010139;28;20096;-60
2022/06/06 08:22:57;;;;;;;1.98;0.75;;;30.10;57.00;;;;;;5005581;28;20030;-60
2022/06/06 08:25:23;;;;;;;3.05;0.73;;;29.80;56.50;;;;;;5009038;28;20030;-59
2022/06/06 08:27:51;;;;;;;2.25;1.02;;;29.60;56.20;;;;;;5011152;28;20109;-60
2022/06/06 08:30:19;;;;;;;2.28;0.80;;;29.30;57.40;;;;;;5010700;28;20034;-58
2022/06/06 08:32:45;;;;;;;2.97;0.70;;;29.40;57.30;;;;;;5016108;28;20026;-61
2022/06/06 08:35:11;;;;;;;1.08;0.57;;;29.40;57.90;;;;;;5012697;28;20052;-61
2022/06/06 08:37:55;;;;;;;3.45;0.90;;;29.90;58.00;;;;;;5008392;28;20538;-62
2022/06/06 08:41:06;;;;;;;4.20;0.98;;;29.80;56.50;;;;;;5011617;28;20044;-60
2022/06/06 08:43:55;;;;;;;4.70;0.80;;;30.20;55.60;;;;;;5008938;28;20036;-60
2022/06/06 08:46:35;;;;;;;2.17;0.57;;;30.10;54.90;;;;;;5007564;28;20049;-61
2022/06/06 08:49:08;;;;;;;2.75;0.77;;;30.10;56.30;;;;;;5015229;28;20029;-61
2022/06/06 08:51:52;;;;;;;1.65;0.90;;;29.90;58.50;;;;;;5009401;28;20060;-60
2022/06/06 08:54:31;;;;;;;3.70;0.80;;;30.10;55.90;;;;;;5008254;28;20024;-58
2022/06/06 08:57:07;;;;;;;2.47;1.05;;;29.20;55.10;;;;;;5007198;28;20117;-60
2022/06/06 09:00:08;;;;;;;0.73;0.70;;;28.60;57.50;;;;;;5008338;28;20033;-57
2022/06/06 09:03:20;;;;;;;1.40;0.90;;;28.60;57.40;;;;;;5013867;28;20087;-61
2022/06/06 09:05:54;;;;;;;0.98;0.75;;;28.50;57.60;;;;;;5003512;28;20042;-58
2022/06/06 09:08:41;;;;;;;1.30;0.70;;;27.70;58.00;;;;;;5014678;28;20026;-54
2022/06/06 09:11:52;;;;;;;1.05;0.65;;;27.60;58.00;;;;;;4993211;28;20499;-55
2022/06/06 09:14:49;;;;;;;1.00;0.55;;;27.70;59.00;;;;;;4987453;28;20583;-52
2022/06/06 09:17:53;;;;;;;2.08;0.90;;;27.90;58.70;;;;;;4948391;28;20043;-60
2022/06/06 09:20:41;;;;;;;1.67;0.55;;;27.20;58.90;;;;;;4984688;28;20061;-57
2022/06/06 09:23:41;;;;;;;2.80;0.90;;;26.90;59.20;;;;;;4987593;28;20113;-57
2022/06/06 09:26:45;;;;;;;6.65;1.35;;;26.80;58.40;;;;;;4988792;28;20093;-60
2022/06/06 09:29:29;;;;;;;2.95;0.93;;;27.50;60.00;;;;;;4988859;28;20034;-58
2022/06/06 09:32:21;;;;;;;0.60;0.50;;;27.00;57.80;;;;;;4990630;28;20038;-58
2022/06/06 09:35:19;;;;;;;4.35;0.85;;;27.40;60.30;;;;;;4981733;28;20022;-58
2022/06/06 09:38:07;;;;;;;1.17;0.70;;;27.40;59.00;;;;;;4987851;28;20030;-61
2022/06/06 09:40:55;;;;;;;3.35;0.82;;;27.60;59.00;;;;;;4989569;28;20030;-61
2022/06/06 09:43:32;;;;;;;0.70;0.70;;;27.60;59.70;;;;;;4985924;28;20088;-60
2022/06/06 09:46:16;;;;;;;4.20;0.80;;;26.60;60.10;;;;;;4987068;28;20037;-59
2022/06/06 09:48:52;;;;;;;1.42;0.50;;;26.80;59.90;;;;;;4985518;28;20537;-60
2022/06/06 09:51:35;;;;;;;1.67;0.77;;;27.50;61.50;;;;;;4988334;28;20392;-59
2022/06/06 10:00:22;;;;;;;2.05;0.60;;;27.60;59.60;;;;;;4986026;28;20511;-54
2022/06/06 10:03:12;;;;;;;2.63;0.93;;;28.30;59.00;;;;;;4988933;28;20014;-59
2022/06/06 10:05:50;;;;;;;0.93;0.70;;;28.50;57.90;;;;;;4989000;28;20034;-59
2022/06/06 10:08:43;;;;;;;2.55;0.60;;;28.80;59.80;;;;;;4988995;28;20511;-55
2022/06/06 10:11:24;;;;;;;13.07;1.83;;;27.50;57.80;;;;;;4986323;28;20488;-59
2022/06/06 10:14:11;;;;;;;2.25;0.90;;;26.80;60.60;;;;;;5006469;28;20443;-58
2022/06/06 10:17:11;;;;;;;0.55;0.55;;;25.60;61.30;;;;;;4981922;28;20520;-57
2022/06/06 10:19:49;;;;;;;1.02;0.70;;;24.70;65.80;;;;;;5007490;28;20084;-57
2022/06/06 10:22:29;;;;;;;2.08;0.90;;;23.90;71.50;;;;;;5008060;28;20117;-53
2022/06/06 10:25:09;;;;;;;2.10;0.95;;;22.90;78.30;;;;;;5008859;28;20451;-55
2022/06/06 10:28:01;;;;;;;1.55;0.88;;;22.50;84.40;;;;;;5008260;28;20038;-59
2022/06/06 10:30:37;;;;;;;3.55;0.93;;;22.50;85.30;;;;;;5003274;28;20038;-56
2022/06/06 10:33:14;;;;;;;5.43;1.42;;;22.30;90.30;;;;;;5009233;28;20030;-57
2022/06/06 10:36:28;;;;;;;1.75;0.80;;;22.00;90.50;;;;;;5020128;28;20105;-58
2022/06/06 10:39:22;;;;;;;1.30;1.00;;;21.90;92.80;;;;;;5002612;28;20125;-55
2022/06/06 10:42:28;;;;;;;1.65;0.80;;;21.50;95.30;;;;;;4999737;28;20058;-58
2022/06/06 10:45:27;;;;;;;3.05;1.05;;;21.30;94.20;;;;;;5007983;28;20475;-55
2022/06/06 10:48:11;;;;;;;5.05;1.35;;;20.90;95.40;;;;;;5006291;28;20030;-56
2022/06/06 10:53:56;;;;;;;3.17;1.25;;;20.80;99.30;;;;;;5002509;28;20408;-54
2022/06/06 10:56:42;;;;;;;1.88;1.20;;;21.10;99.90;;;;;;5005458;28;20101;-56
2022/06/06 10:59:52;;;;;;;2.63;1.20;;;20.70;98.10;;;;;;5004751;28;20037;-58
2022/06/06 11:02:30;;;;;;;2.20;0.85;;;20.50;99.80;;;;;;5002270;28;20054;-49
2022/06/06 11:05:13;;;;;;;2.40;0.77;;;20.70;99.90;;;;;;5009977;28;20483;-57
2022/06/06 11:08:00;;;;;;;1.45;1.00;;;20.90;98.10;;;;;;5011312;28;20030;-49
2022/06/06 11:10:53;;;;;;;2.03;0.98;;;20.80;97.60;;;;;;5011259;28;20045;-49
2022/06/06 11:13:38;;;;;;;0.70;0.70;;;20.90;98.00;;;;;;4995965;28;20057;-54
2022/06/06 11:16:35;;;;;;;1.02;0.70;;;20.60;96.30;;;;;;5005834;28;20496;-54
2022/06/06 11:19:19;;;;;;;1.05;0.80;;;20.50;97.80;;;;;;5011970;28;20034;-57
2022/06/06 11:22:32;;;;;;;3.72;1.15;;;19.80;98.70;;;;;;5012187;28;20040;-56
2022/06/06 11:25:04;;;;;;;2.17;1.05;;;19.70;97.60;;;;;;5005118;28;20490;-55
2022/06/06 11:27:45;;;;;;;1.88;1.20;;;19.30;99.90;;;;;;5011151;28;20033;-58
2022/06/06 11:30:26;;;;;;;2.60;1.27;;;19.10;99.90;;;;;;5011749;28;20081;-58
2022/06/06 11:33:25;;;;;;;1.45;1.13;;;19.10;99.90;;;;;;5012352;28;20026;-56
2022/06/06 11:35:52;;;;;;;2.45;0.80;;;19.60;99.90;;;;;;5010064;28;20085;-58
2022/06/06 11:38:51;;;;;;;0.77;0.65;;;19.90;99.40;;;;;;5016319;28;20545;-52
2022/06/06 11:41:31;;;;;;;2.78;1.48;;;19.70;99.90;;;;;;5008937;28;20044;-57
2022/06/06 11:44:10;;;;;;;1.83;0.88;;;19.80;99.90;;;;;;5006451;28;20400;-59
2022/06/06 11:47:13;;;;;;;3.15;0.77;;;20.20;99.90;;;;;;5009414;28;20052;-59
2022/06/06 11:50:09;;;;;;;2.58;0.70;;;20.50;99.40;;;;;;5010360;28;20080;-59
2022/06/06 11:52:55;;;;;;;0.85;0.43;;;21.30;98.30;;;;;;5009998;28;20033;-58
2022/06/06 11:55:51;;;;;;;0.80;0.57;;;21.30;97.20;;;;;;5009677;28;20045;-60
2022/06/06 11:58:26;;;;;;;0.75;0.68;;;21.20;98.40;;;;;;5010725;28;20510;-56
2022/06/06 12:01:34;;;;;;;0.77;0.57;;;21.00;98.50;;;;;;5009768;28;20072;-59
2022/06/06 12:04:18;;;;;;;1.73;1.00;;;20.80;97.70;;;;;;4989863;28;20050;-59
2022/06/06 12:07:02;;;;;;;1.42;0.98;;;20.80;95.30;;;;;;5008835;28;20045;-59
2022/06/06 12:09:50;;;;;;;0.93;0.63;;;20.70;98.20;;;;;;5010466;28;20061;-58
2022/06/06 12:12:42;;;;;;;0.70;0.70;;;20.70;97.80;;;;;;4981949;28;20049;-50
2022/06/06 12:15:25;;;;;;;1.25;0.80;;;20.70;96.70;;;;;;5009044;28;20034;-55
2022/06/06 12:18:09;;;;;;;2.63;0.83;;;20.40;96.80;;;;;;5009134;28;20037;-56
2022/06/06 12:20:53;;;;;;;1.83;0.88;;;20.70;97.60;;;;;;5005554;28;20810;-57
2022/06/06 12:23:41;;;;;;;1.08;0.90;;;20.70;97.20;;;;;;5005636;28;20025;-55
2022/06/06 12:26:25;;;;;;;1.60;1.00;;;20.70;97.00;;;;;;5007008;28;20034;-58
2022/06/06 12:29:17;;;;;;;3.90;1.13;;;20.90;97.00;;;;;;5006636;28;20022;-57
2022/06/06 12:31:54;;;;;;;1.30;1.00;;;20.90;95.70;;;;;;5002575;28;20034;-57
2022/06/06 12:34:59;;;;;;;1.60;0.90;;;20.90;96.90;;;;;;5010453;28;20058;-49
2022/06/06 12:37:27;;;;;;;;;;;21.00;94.10;;;;;;5009666;28;20160;-57
2022/06/06 12:40:24;;;;;;;3.53;1.00;;;21.00;95.00;;;;;;5009908;28;19917;-57
2022/06/06 12:43:11;;;;;;;1.40;1.15;;;20.70;95.30;;;;;;5009040;28;20053;-58
2022/06/06 12:46:13;;;;;;;1.10;0.98;;;20.60;96.40;;;;;;5007726;28;20037;-53
2022/06/06 12:48:58;;;;;;;4.40;1.33;;;20.70;96.00;;;;;;5003600;28;20022;-57
2022/06/06 12:51:43;;;;;;;1.63;1.10;;;20.80;96.50;;;;;;5002618;28;20049;-54
2022/06/06 12:54:23;;;;;;;2.30;1.20;;;21.00;96.30;;;;;;5009586;28;20033;-58
2022/06/06 12:56:54;;;;;;;1.95;1.13;;;21.30;96.30;;;;;;5008657;28;20029;-57
2022/06/06 12:59:25;;;;;;;3.05;0.82;;;21.70;94.90;;;;;;5007281;28;20407;-58
2022/06/06 13:02:15;;;;;;;0.98;0.80;;;22.10;92.10;;;;;;5008901;28;20021;-57
2022/06/06 13:05:04;;;;;;;4.03;1.10;;;22.30;92.10;;;;;;5006687;28;20041;-57
2022/06/06 13:07:54;;;;;;;3.17;1.00;;;22.20;92.30;;;;;;5008379;28;20022;-53
2022/06/06 13:10:35;;;;;;;1.50;1.00;;;22.30;91.80;;;;;;5009578;28;20349;-51
2022/06/06 13:13:03;;;;;;;2.85;0.85;;;22.30;90.90;;;;;;4988556;28;20121;-56
2022/06/06 13:15:31;;;;;;;2.15;0.98;;;22.70;91.50;;;;;;5006328;28;20033;-49
2022/06/06 13:18:19;;;;;;;1.10;0.70;;;23.00;91.10;;;;;;5004735;28;20133;-60
2022/06/06 13:20:57;;;;;;;1.02;0.80;;;23.10;88.60;;;;;;5006359;28;20026;-58
2022/06/06 13:23:48;;;;;;;4.13;1.00;;;23.20;90.30;;;;;;5008498;28;20083;-56
2022/06/06 13:26:52;;;;;;;1.15;0.82;;;22.80;90.30;;;;;;5004263;28;20026;-60
2022/06/06 13:29:31;;;;;;;;;;;23.10;91.20;;;;;;5009441;28;20046;-58
2022/06/06 13:32:21;;;;;;;1.58;0.77;;;23.40;83.80;;;;;;5004850;28;19927;-56
2022/06/06 13:35:11;;;;;;;1.30;0.80;;;23.00;80.90;;;;;;5005480;28;20025;-56
2022/06/06 13:37:59;;;;;;;7.15;1.15;;;23.00;82.50;;;;;;5005233;28;20026;-57
2022/06/06 13:40:49;;;;;;;4.57;2.03;;;23.10;80.70;;;;;;5006292;28;20104;-60
2022/06/06 13:43:57;;;;;;;2.22;1.25;;;23.20;80.50;;;;;;5010454;28;20030;-58
2022/06/06 13:46:45;;;;;;;5.75;2.83;;;23.10;77.60;;;;;;5006329;28;20042;-58
2022/06/06 13:49:28;;;;;;;1.17;0.95;;;23.20;77.80;;;;;;5009710;28;20492;-57
2022/06/06 13:52:14;;;;;;;14.07;5.60;;;22.90;75.80;;;;;;5009178;28;20036;-58
2022/06/06 13:54:40;;;;;;;12.52;5.82;;;22.80;77.70;;;;;;5007692;28;20038;-58
2022/06/06 13:57:28;;;;;;;13.07;4.50;;;22.80;78.10;;;;;;5007164;28;20066;-58
2022/06/06 14:00:05;;;;;;;2.58;1.30;;;22.80;77.30;;;;;;5008064;28;20487;-58
2022/06/06 14:02:52;;;;;;;2.95;0.80;;;22.80;78.20;;;;;;5010862;28;20045;-56
2022/06/06 14:05:41;;;;;;;2.60;1.20;;;23.00;76.80;;;;;;5006133;28;20090;-58
2022/06/06 14:08:20;;;;;;;2.95;1.02;;;22.80;75.70;;;;;;5013365;28;20041;-57
2022/06/06 14:10:55;;;;;;;0.82;0.70;;;22.70;75.70;;;;;;5008439;28;20117;-57